DW2770 Cefalu IT current weather conditions

sailwx.info

Wind from 158 at 2 knots gusting 2

Air temperature 16.1° C
Dewpoint 13.0° C

Last reported at 2018-Nov-12 23:50 UTC.
Time now 2018-Nov-13 06:34 UTC

Location: N 38°02' E 014°02'.
View on Google Maps.

See reports from other nearby stations

  
Tides and Currents Weather Stations Pressure Air Temp Water Temp Dewpoint Dewpoint Depression Visibility Wind Speed Wind Dir Waves Ship Positions
date/time (UTC)wind fromknots sea level pressurealtimeterstation pressurevisibilityair tempwater tempwave heightnotes
2018-Nov-12 23:50 158 2 gusting 2 16.1
2018-Nov-12 23:40 158 0 gusting 1 16.1
2018-Nov-12 23:30 180 16.1
2018-Nov-12 23:20 180 1 gusting 2 16.1
2018-Nov-12 23:10 180 1 gusting 2 16.1
2018-Nov-12 23:00 180 2 gusting 2 16.1
2018-Nov-12 22:40 180 1 gusting 2 16.1
2018-Nov-12 22:30 158 1 gusting 2 16.1
2018-Nov-12 22:20 158 0 gusting 2 16.1
2018-Nov-12 22:10 158 1 gusting 2 16.1
2018-Nov-12 22:00 183 1 gusting 2 16.1
2018-Nov-12 21:50 158 1 gusting 2 16.1
2018-Nov-12 21:40 180 1 gusting 1 16.1
2018-Nov-12 21:20 135 0 gusting 1 16.1
2018-Nov-12 21:10 180 1 gusting 2 16.1
2018-Nov-12 21:01 159 1 gusting 2 16.1
2018-Nov-12 20:50 158 0 gusting 1 16.1
2018-Nov-12 20:40 158 0 gusting 4 16.1
2018-Nov-12 20:30 180 2 gusting 6 16.1
2018-Nov-12 20:20 180 4 gusting 6 16.1
2018-Nov-12 20:10 180 2 gusting 2 16.1
2018-Nov-12 20:00 150 0 gusting 2 16.1
2018-Nov-12 19:50 158 2 gusting 2 16.1
2018-Nov-12 19:20 180 1 gusting 2 16.7
2018-Nov-12 19:10 180 1 gusting 2 16.7
2018-Nov-12 19:00 172 1 gusting 2 16.7
2018-Nov-12 18:50 158 0 gusting 2 16.7
2018-Nov-12 18:40 180 2 gusting 4 16.7
2018-Nov-12 18:30 158 16.7
2018-Nov-12 18:20 180 2 gusting 2 16.7
2018-Nov-12 17:50 158 1 gusting 2 17.2
2018-Nov-12 17:41 202 1 gusting 1 16.7
2018-Nov-12 17:30 112 16.7
2018-Nov-12 17:20 158 16.7
2018-Nov-12 17:10 158 1 gusting 1 16.1
2018-Nov-12 17:00 083 16.1
2018-Nov-12 16:50 158 16.7
2018-Nov-12 16:40 068 16.7
2018-Nov-12 16:30 180 0 gusting 0 16.7
2018-Nov-12 16:21 108 16.7
2018-Nov-12 16:10 158 17.2
2018-Nov-12 15:40 090 1 gusting 1 17.8
2018-Nov-12 15:30 068 0 gusting 1 17.8
2018-Nov-12 15:00 070 0 gusting 2 17.8
2018-Nov-12 14:32 054 2 gusting 4 17.8
2018-Nov-12 14:20 071 2 gusting 4 18.3
2018-Nov-12 14:10 045 2 gusting 5 18.3
2018-Nov-12 13:40 045 1 gusting 2 18.9
2018-Nov-12 13:30 075 1 gusting 2 18.9
2018-Nov-12 13:20 068 2 gusting 2 18.9
2018-Nov-12 13:10 068 1 gusting 2 18.9
2018-Nov-12 12:40 068 1 gusting 4 19.4
2018-Nov-12 12:30 045 0 gusting 1 19.4
2018-Nov-12 12:20 090 1 gusting 2 19.4
2018-Nov-12 12:10 045 1 gusting 1 19.4
2018-Nov-12 12:00 068 0 gusting 2 19.4
2018-Nov-12 11:50 067 1 gusting 2 19.4
2018-Nov-12 11:20 068 1 gusting 2 19.4
2018-Nov-12 11:10 045 2 gusting 4 19.4
2018-Nov-12 10:40 045 1 gusting 2 19.4
2018-Nov-12 10:31 045 0 gusting 2 19.4
2018-Nov-12 10:01 068 1 gusting 2 18.3
2018-Nov-12 09:20 270 18.3
2018-Nov-12 09:10 225 0 gusting 1 18.3
2018-Nov-12 09:00 270 0 gusting 4 18.3
2018-Nov-11 23:21 168 2 gusting 2 15.6
2018-Nov-11 23:10 180 4 gusting 4 15.6
2018-Nov-11 23:00 174 3 gusting 4 15.6
2018-Nov-11 22:50 156 1 gusting 1 15.6
2018-Nov-11 22:40 135 2 gusting 2 15.6
2018-Nov-11 22:30 158 0 gusting 2 15.6
2018-Nov-11 22:21 135 0 gusting 1 15.6
2018-Nov-11 22:00 158 2 gusting 4 15.6
2018-Nov-11 21:51 165 3 gusting 4 15.6
2018-Nov-11 21:40 158 3 gusting 4 15.6
2018-Nov-11 21:30 158 1 gusting 2 15.6
2018-Nov-11 21:20 171 1 gusting 5 15.6
2018-Nov-11 21:11 180 4 gusting 5 15.6
2018-Nov-11 21:00 135 0 gusting 1 15.6
2018-Nov-11 20:20 180 2 gusting 5 16.1
2018-Nov-11 20:10 158 2 gusting 2 16.1
2018-Nov-11 19:40 158 2 gusting 5 16.1
2018-Nov-11 19:10 180 2 gusting 2 16.1
2018-Nov-11 19:00 158 2 gusting 2 15.6
2018-Nov-11 18:40 158 1 gusting 2 15.6
2018-Nov-11 18:30 202 1 gusting 2 15.6
2018-Nov-11 18:20 166 2 gusting 5 16.1
2018-Nov-11 18:00 180 2 gusting 2 16.1
2018-Nov-11 17:40 135 0 gusting 1 16.1
2018-Nov-11 17:30 180 16.7
2018-Nov-11 17:20 174 0 gusting 0 16.7
2018-Nov-11 17:00 135 16.1
2018-Nov-11 16:50 140 16.1
2018-Nov-11 16:40 16.7
2018-Nov-11 16:30 022 16.7
2018-Nov-11 16:11 338 17.2
2018-Nov-11 16:02 315 17.2
2018-Nov-11 15:50 045 17.2
2018-Nov-11 15:41 090 0 gusting 0 17.2
2018-Nov-11 15:31 068 17.8
2018-Nov-11 15:21 080 0 gusting 2 17.8
2018-Nov-11 15:10 068 2 gusting 2 18.3
2018-Nov-11 14:50 052 1 gusting 2 17.8
2018-Nov-11 14:40 068 2 gusting 4 18.3
2018-Nov-11 14:30 068 2 gusting 2 18.3
2018-Nov-11 14:10 045 1 gusting 2 18.3
2018-Nov-11 14:00 045 2 gusting 2 18.9
2018-Nov-11 13:50 045 1 gusting 2 18.9
2018-Nov-11 13:40 045 1 gusting 2 18.9
2018-Nov-11 13:30 068 1 gusting 2 19.4
2018-Nov-11 13:10 068 0 gusting 2 19.4
2018-Nov-11 13:00 045 0 gusting 2 19.4
2018-Nov-11 12:50 069 2 gusting 6 18.9
2018-Nov-11 12:40 068 4 gusting 6 19.4
2018-Nov-11 12:30 068 1 gusting 5 19.4
2018-Nov-11 12:20 035 2 gusting 4 19.4
2018-Nov-11 12:10 045 3 gusting 4 19.4
2018-Nov-11 12:00 068 1 gusting 2 19.4
2018-Nov-11 11:40 068 2 gusting 4 19.4
2018-Nov-11 11:30 068 2 gusting 4 19.4
2018-Nov-11 11:20 079 0 gusting 5 19.4
2018-Nov-11 11:00 068 4 gusting 5 19.4
2018-Nov-11 10:50 078 1 gusting 2 19.4
2018-Nov-11 10:30 045 1 gusting 4 19.4
2018-Nov-11 09:50 033 1 gusting 2 18.9
2018-Nov-11 09:40 159 18.9